sensor_id;sensor_type;location;lat;lon;timestamp;temperature;humidity
9482;DHT22;4779;48.062;11.672;2023-12-29T00:00:55;7.90;99.90
9482;DHT22;4779;48.062;11.672;2023-12-29T00:03:24;7.90;99.90
9482;DHT22;4779;48.062;11.672;2023-12-29T00:05:51;7.80;99.90
9482;DHT22;4779;48.062;11.672;2023-12-29T00:08:18;7.80;99.90
9482;DHT22;4779;48.062;11.672;2023-12-29T00:10:45;7.80;99.90
9482;DHT22;4779;48.062;11.672;2023-12-29T00:13:12;7.80;99.90
9482;DHT22;4779;48.062;11.672;2023-12-29T00:15:39;7.80;99.90
9482;DHT22;4779;48.062;11.672;2023-12-29T00:18:06;7.70;99.90
9482;DHT22;4779;48.062;11.672;2023-12-29T00:20:34;7.70;99.90
9482;DHT22;4779;48.062;11.672;2023-12-29T00:23:02;7.60;99.90
9482;DHT22;4779;48.062;11.672;2023-12-29T00:25:29;7.60;99.90
9482;DHT22;4779;48.062;11.672;2023-12-29T00:27:56;7.40;99.90
9482;DHT22;4779;48.062;11.672;2023-12-29T00:30:24;7.40;99.90
9482;DHT22;4779;48.062;11.672;2023-12-29T00:32:51;7.40;99.90
9482;DHT22;4779;48.062;11.672;2023-12-29T00:35:17;7.30;99.90
9482;DHT22;4779;48.062;11.672;2023-12-29T00:37:46;7.30;99.90
9482;DHT22;4779;48.062;11.672;2023-12-29T00:40:13;7.20;99.90
9482;DHT22;4779;48.062;11.672;2023-12-29T00:42:40;7.20;99.90
9482;DHT22;4779;48.062;11.672;2023-12-29T00:45:07;7.10;99.90
9482;DHT22;4779;48.062;11.672;2023-12-29T00:47:35;7.20;99.90
9482;DHT22;4779;48.062;11.672;2023-12-29T00:50:02;7.10;99.90
9482;DHT22;4779;48.062;11.672;2023-12-29T00:52:29;7.10;99.90
9482;DHT22;4779;48.062;11.672;2023-12-29T00:54:57;7.10;99.90
9482;DHT22;4779;48.062;11.672;2023-12-29T00:57:24;7.10;99.90
9482;DHT22;4779;48.062;11.672;2023-12-29T00:59:51;7.10;99.90
9482;DHT22;4779;48.062;11.672;2023-12-29T01:02:18;7.10;99.90
9482;DHT22;4779;48.062;11.672;2023-12-29T01:04:45;7.00;99.90
9482;DHT22;4779;48.062;11.672;2023-12-29T01:07:12;6.90;99.90
9482;DHT22;4779;48.062;11.672;2023-12-29T01:09:39;6.80;99.90
9482;DHT22;4779;48.062;11.672;2023-12-29T01:12:08;6.80;99.90
9482;DHT22;4779;48.062;11.672;2023-12-29T01:14:35;6.80;99.90
9482;DHT22;4779;48.062;11.672;2023-12-29T01:17:03;6.70;99.90
9482;DHT22;4779;48.062;11.672;2023-12-29T01:19:30;6.60;99.90
9482;DHT22;4779;48.062;11.672;2023-12-29T01:21:57;6.60;99.90
9482;DHT22;4779;48.062;11.672;2023-12-29T01:24:24;6.60;99.90
9482;DHT22;4779;48.062;11.672;2023-12-29T01:26:51;6.50;99.90
9482;DHT22;4779;48.062;11.672;2023-12-29T01:29:20;6.50;99.90
9482;DHT22;4779;48.062;11.672;2023-12-29T01:31:46;6.50;99.90
9482;DHT22;4779;48.062;11.672;2023-12-29T01:34:14;6.50;99.90
9482;DHT22;4779;48.062;11.672;2023-12-29T01:36:41;6.50;99.90
9482;DHT22;4779;48.062;11.672;2023-12-29T01:39:08;6.50;99.90
9482;DHT22;4779;48.062;11.672;2023-12-29T01:41:35;6.50;99.90
9482;DHT22;4779;48.062;11.672;2023-12-29T01:44:20;6.50;99.90
9482;DHT22;4779;48.062;11.672;2023-12-29T01:46:49;6.50;99.90
9482;DHT22;4779;48.062;11.672;2023-12-29T01:49:18;6.50;99.90
9482;DHT22;4779;48.062;11.672;2023-12-29T01:51:49;6.50;99.90
9482;DHT22;4779;48.062;11.672;2023-12-29T01:54:17;6.40;99.90
9482;DHT22;4779;48.062;11.672;2023-12-29T01:56:45;6.30;99.90
9482;DHT22;4779;48.062;11.672;2023-12-29T01:59:13;6.30;99.90
9482;DHT22;4779;48.062;11.672;2023-12-29T02:01:42;6.30;99.90
9482;DHT22;4779;48.062;11.672;2023-12-29T02:04:12;6.30;99.90
9482;DHT22;4779;48.062;11.672;2023-12-29T02:06:40;6.30;99.90
9482;DHT22;4779;48.062;11.672;2023-12-29T02:09:07;6.30;99.90
9482;DHT22;4779;48.062;11.672;2023-12-29T02:11:34;6.20;99.90
9482;DHT22;4779;48.062;11.672;2023-12-29T02:14:02;6.20;99.90
9482;DHT22;4779;48.062;11.672;2023-12-29T02:16:34;6.10;99.90
9482;DHT22;4779;48.062;11.672;2023-12-29T02:19:16;6.10;99.90
9482;DHT22;4779;48.062;11.672;2023-12-29T02:21:49;6.00;99.90
9482;DHT22;4779;48.062;11.672;2023-12-29T02:24:16;5.90;99.90
9482;DHT22;4779;48.062;11.672;2023-12-29T02:26:52;5.80;99.90
9482;DHT22;4779;48.062;11.672;2023-12-29T02:29:21;5.80;99.90
9482;DHT22;4779;48.062;11.672;2023-12-29T02:31:53;5.70;99.90
9482;DHT22;4779;48.062;11.672;2023-12-29T02:34:22;5.60;99.90
9482;DHT22;4779;48.062;11.672;2023-12-29T02:36:53;5.60;99.90
9482;DHT22;4779;48.062;11.672;2023-12-29T02:39:21;5.60;99.90
9482;DHT22;4779;48.062;11.672;2023-12-29T02:41:50;5.60;99.90
9482;DHT22;4779;48.062;11.672;2023-12-29T02:44:17;5.70;99.90
9482;DHT22;4779;48.062;11.672;2023-12-29T02:46:43;5.80;99.90
9482;DHT22;4779;48.062;11.672;2023-12-29T02:49:11;5.70;99.90
9482;DHT22;4779;48.062;11.672;2023-12-29T02:51:38;5.70;99.90
9482;DHT22;4779;48.062;11.672;2023-12-29T02:54:06;5.80;99.90
9482;DHT22;4779;48.062;11.672;2023-12-29T02:56:33;5.90;99.90
9482;DHT22;4779;48.062;11.672;2023-12-29T02:59:02;5.90;99.90
9482;DHT22;4779;48.062;11.672;2023-12-29T03:01:29;6.00;99.90
9482;DHT22;4779;48.062;11.672;2023-12-29T03:03:56;6.20;99.90
9482;DHT22;4779;48.062;11.672;2023-12-29T03:06:23;6.40;99.90
9482;DHT22;4779;48.062;11.672;2023-12-29T03:08:51;6.40;99.90
9482;DHT22;4779;48.062;11.672;2023-12-29T03:11:18;6.40;99.90
9482;DHT22;4779;48.062;11.672;2023-12-29T03:13:45;6.50;99.90
9482;DHT22;4779;48.062;11.672;2023-12-29T03:16:14;6.50;99.90
9482;DHT22;4779;48.062;11.672;2023-12-29T03:18:41;6.50;99.90
9482;DHT22;4779;48.062;11.672;2023-12-29T03:21:08;6.40;99.90
9482;DHT22;4779;48.062;11.672;2023-12-29T03:23:35;6.30;99.90
9482;DHT22;4779;48.062;11.672;2023-12-29T03:26:02;6.20;99.90
9482;DHT22;4779;48.062;11.672;2023-12-29T03:28:29;6.10;99.90
9482;DHT22;4779;48.062;11.672;2023-12-29T03:30:56;6.10;99.90
9482;DHT22;4779;48.062;11.672;2023-12-29T03:33:24;6.00;99.90
9482;DHT22;4779;48.062;11.672;2023-12-29T03:35:51;6.10;99.90
9482;DHT22;4779;48.062;11.672;2023-12-29T03:38:18;6.00;99.90
9482;DHT22;4779;48.062;11.672;2023-12-29T03:40:45;6.00;99.90
9482;DHT22;4779;48.062;11.672;2023-12-29T03:43:12;5.90;99.90
9482;DHT22;4779;48.062;11.672;2023-12-29T03:45:39;5.90;99.90
9482;DHT22;4779;48.062;11.672;2023-12-29T03:48:07;5.80;99.90
9482;DHT22;4779;48.062;11.672;2023-12-29T03:50:36;5.80;99.90
9482;DHT22;4779;48.062;11.672;2023-12-29T03:53:03;5.70;99.90
9482;DHT22;4779;48.062;11.672;2023-12-29T03:55:30;5.70;99.90
9482;DHT22;4779;48.062;11.672;2023-12-29T03:57:57;5.60;99.90
9482;DHT22;4779;48.062;11.672;2023-12-29T04:00:25;5.60;99.90
9482;DHT22;4779;48.062;11.672;2023-12-29T04:02:52;5.50;99.90
9482;DHT22;4779;48.062;11.672;2023-12-29T04:05:19;5.40;99.90
9482;DHT22;4779;48.062;11.672;2023-12-29T04:07:48;5.40;99.90
9482;DHT22;4779;48.062;11.672;2023-12-29T04:10:15;5.30;99.90
9482;DHT22;4779;48.062;11.672;2023-12-29T04:12:42;5.40;99.90
9482;DHT22;4779;48.062;11.672;2023-12-29T04:15:09;5.40;99.90
9482;DHT22;4779;48.062;11.672;2023-12-29T04:17:36;5.40;99.90
9482;DHT22;4779;48.062;11.672;2023-12-29T04:20:04;5.40;99.90
9482;DHT22;4779;48.062;11.672;2023-12-29T04:22:31;5.40;99.90
9482;DHT22;4779;48.062;11.672;2023-12-29T04:25:00;5.40;99.90
9482;DHT22;4779;48.062;11.672;2023-12-29T04:27:27;5.50;99.90
9482;DHT22;4779;48.062;11.672;2023-12-29T04:29:54;5.50;99.90
9482;DHT22;4779;48.062;11.672;2023-12-29T04:32:21;5.60;99.90
9482;DHT22;4779;48.062;11.672;2023-12-29T04:34:48;5.60;99.90
9482;DHT22;4779;48.062;11.672;2023-12-29T04:37:15;5.60;99.90
9482;DHT22;4779;48.062;11.672;2023-12-29T04:39:42;5.60;99.90
9482;DHT22;4779;48.062;11.672;2023-12-29T04:42:11;5.60;99.90
9482;DHT22;4779;48.062;11.672;2023-12-29T04:44:38;5.70;99.90
9482;DHT22;4779;48.062;11.672;2023-12-29T04:47:05;5.80;99.90
9482;DHT22;4779;48.062;11.672;2023-12-29T04:49:33;5.80;99.90
9482;DHT22;4779;48.062;11.672;2023-12-29T04:52:00;5.70;99.90
9482;DHT22;4779;48.062;11.672;2023-12-29T04:54:27;5.80;99.90
9482;DHT22;4779;48.062;11.672;2023-12-29T04:56:54;5.80;99.90
9482;DHT22;4779;48.062;11.672;2023-12-29T04:59:22;5.80;99.90
9482;DHT22;4779;48.062;11.672;2023-12-29T05:01:49;5.90;99.90
9482;DHT22;4779;48.062;11.672;2023-12-29T05:04:16;6.00;99.90
9482;DHT22;4779;48.062;11.672;2023-12-29T05:06:44;6.00;99.90
9482;DHT22;4779;48.062;11.672;2023-12-29T05:09:11;5.90;99.90
9482;DHT22;4779;48.062;11.672;2023-12-29T05:11:39;5.90;99.90
9482;DHT22;4779;48.062;11.672;2023-12-29T05:14:06;6.00;99.90
9482;DHT22;4779;48.062;11.672;2023-12-29T05:16:35;6.00;99.90
9482;DHT22;4779;48.062;11.672;2023-12-29T05:19:02;5.90;99.90
9482;DHT22;4779;48.062;11.672;2023-12-29T05:21:29;6.00;99.90
9482;DHT22;4779;48.062;11.672;2023-12-29T05:23:56;5.90;99.90
9482;DHT22;4779;48.062;11.672;2023-12-29T05:26:23;5.90;99.90
9482;DHT22;4779;48.062;11.672;2023-12-29T05:28:50;5.90;99.90
9482;DHT22;4779;48.062;11.672;2023-12-29T05:31:18;5.90;99.90
9482;DHT22;4779;48.062;11.672;2023-12-29T05:33:46;5.90;99.90
9482;DHT22;4779;48.062;11.672;2023-12-29T05:36:13;5.90;99.90
9482;DHT22;4779;48.062;11.672;2023-12-29T05:38:40;5.90;99.90
9482;DHT22;4779;48.062;11.672;2023-12-29T05:41:07;5.90;99.90
9482;DHT22;4779;48.062;11.672;2023-12-29T05:43:34;5.90;99.90
9482;DHT22;4779;48.062;11.672;2023-12-29T05:46:02;5.90;99.90
9482;DHT22;4779;48.062;11.672;2023-12-29T05:48:29;5.90;99.90
9482;DHT22;4779;48.062;11.672;2023-12-29T05:50:57;6.00;99.90
9482;DHT22;4779;48.062;11.672;2023-12-29T05:53:24;6.00;99.90
9482;DHT22;4779;48.062;11.672;2023-12-29T05:55:50;6.00;99.90
9482;DHT22;4779;48.062;11.672;2023-12-29T05:58:18;5.90;99.90
9482;DHT22;4779;48.062;11.672;2023-12-29T06:00:45;5.90;99.90
9482;DHT22;4779;48.062;11.672;2023-12-29T06:03:12;5.90;99.90
9482;DHT22;4779;48.062;11.672;2023-12-29T06:05:39;5.90;99.90
9482;DHT22;4779;48.062;11.672;2023-12-29T06:08:08;5.80;99.90
9482;DHT22;4779;48.062;11.672;2023-12-29T06:10:36;5.80;99.90
9482;DHT22;4779;48.062;11.672;2023-12-29T06:13:02;5.80;99.90
9482;DHT22;4779;48.062;11.672;2023-12-29T06:15:29;5.80;99.90
9482;DHT22;4779;48.062;11.672;2023-12-29T06:17:57;5.80;99.90
9482;DHT22;4779;48.062;11.672;2023-12-29T06:20:24;5.80;99.90
9482;DHT22;4779;48.062;11.672;2023-12-29T06:22:51;5.90;99.90
9482;DHT22;4779;48.062;11.672;2023-12-29T06:25:19;6.00;99.90
9482;DHT22;4779;48.062;11.672;2023-12-29T06:27:46;6.00;99.90
9482;DHT22;4779;48.062;11.672;2023-12-29T06:30:14;5.90;99.90
9482;DHT22;4779;48.062;11.672;2023-12-29T06:32:41;6.00;99.90
9482;DHT22;4779;48.062;11.672;2023-12-29T06:35:08;6.00;99.90
9482;DHT22;4779;48.062;11.672;2023-12-29T06:37:36;6.00;99.90
9482;DHT22;4779;48.062;11.672;2023-12-29T06:40:05;6.00;99.90
9482;DHT22;4779;48.062;11.672;2023-12-29T06:42:34;6.10;99.90
9482;DHT22;4779;48.062;11.672;2023-12-29T06:45:01;6.00;99.90
9482;DHT22;4779;48.062;11.672;2023-12-29T06:47:28;6.10;99.90
9482;DHT22;4779;48.062;11.672;2023-12-29T06:49:55;6.10;99.90
9482;DHT22;4779;48.062;11.672;2023-12-29T06:52:22;6.00;99.90
9482;DHT22;4779;48.062;11.672;2023-12-29T06:54:50;6.10;99.90
9482;DHT22;4779;48.062;11.672;2023-12-29T06:57:17;6.00;99.90
9482;DHT22;4779;48.062;11.672;2023-12-29T06:59:45;6.10;99.90
9482;DHT22;4779;48.062;11.672;2023-12-29T07:02:12;6.10;99.90
9482;DHT22;4779;48.062;11.672;2023-12-29T07:04:41;6.10;99.90
9482;DHT22;4779;48.062;11.672;2023-12-29T07:07:09;6.10;99.90
9482;DHT22;4779;48.062;11.672;2023-12-29T07:09:39;6.10;99.90
9482;DHT22;4779;48.062;11.672;2023-12-29T07:12:07;6.10;99.90
9482;DHT22;4779;48.062;11.672;2023-12-29T07:14:34;6.20;99.90
9482;DHT22;4779;48.062;11.672;2023-12-29T07:17:03;6.20;99.90
9482;DHT22;4779;48.062;11.672;2023-12-29T07:19:30;6.20;99.90
9482;DHT22;4779;48.062;11.672;2023-12-29T07:22:03;6.20;99.90
9482;DHT22;4779;48.062;11.672;2023-12-29T07:24:31;6.30;99.90
9482;DHT22;4779;48.062;11.672;2023-12-29T07:26:58;6.30;99.90
9482;DHT22;4779;48.062;11.672;2023-12-29T07:29:25;6.40;99.90
9482;DHT22;4779;48.062;11.672;2023-12-29T07:31:53;6.40;99.90
9482;DHT22;4779;48.062;11.672;2023-12-29T07:34:21;6.40;99.90
9482;DHT22;4779;48.062;11.672;2023-12-29T07:36:48;6.40;99.90
9482;DHT22;4779;48.062;11.672;2023-12-29T07:39:15;6.40;99.90
9482;DHT22;4779;48.062;11.672;2023-12-29T07:41:43;6.30;99.90
9482;DHT22;4779;48.062;11.672;2023-12-29T07:44:10;6.30;99.90
9482;DHT22;4779;48.062;11.672;2023-12-29T07:46:38;6.40;99.90
9482;DHT22;4779;48.062;11.672;2023-12-29T07:49:05;6.50;99.90
9482;DHT22;4779;48.062;11.672;2023-12-29T07:51:33;6.40;99.90
9482;DHT22;4779;48.062;11.672;2023-12-29T07:54:00;6.60;99.90
9482;DHT22;4779;48.062;11.672;2023-12-29T07:56:28;6.60;99.90
9482;DHT22;4779;48.062;11.672;2023-12-29T07:58:55;6.70;99.90
9482;DHT22;4779;48.062;11.672;2023-12-29T08:01:22;6.80;99.90
9482;DHT22;4779;48.062;11.672;2023-12-29T08:03:49;6.90;99.90
9482;DHT22;4779;48.062;11.672;2023-12-29T08:06:16;7.00;99.90
9482;DHT22;4779;48.062;11.672;2023-12-29T08:08:44;7.10;99.90
9482;DHT22;4779;48.062;11.672;2023-12-29T08:11:14;7.30;99.90
9482;DHT22;4779;48.062;11.672;2023-12-29T08:13:43;7.40;99.90
9482;DHT22;4779;48.062;11.672;2023-12-29T08:16:11;7.40;99.90
9482;DHT22;4779;48.062;11.672;2023-12-29T08:18:38;7.50;99.90
9482;DHT22;4779;48.062;11.672;2023-12-29T08:21:05;7.60;99.90
9482;DHT22;4779;48.062;11.672;2023-12-29T08:23:32;7.70;99.90
9482;DHT22;4779;48.062;11.672;2023-12-29T08:26:02;7.70;99.90
9482;DHT22;4779;48.062;11.672;2023-12-29T08:28:29;7.80;99.90
9482;DHT22;4779;48.062;11.672;2023-12-29T08:30:57;7.80;99.90
9482;DHT22;4779;48.062;11.672;2023-12-29T08:33:24;7.80;99.90
9482;DHT22;4779;48.062;11.672;2023-12-29T08:35:50;7.90;99.90
9482;DHT22;4779;48.062;11.672;2023-12-29T08:38:17;7.90;99.90
9482;DHT22;4779;48.062;11.672;2023-12-29T08:40:44;7.90;99.90
9482;DHT22;4779;48.062;11.672;2023-12-29T08:43:13;7.90;99.90
9482;DHT22;4779;48.062;11.672;2023-12-29T08:45:42;7.80;99.90
9482;DHT22;4779;48.062;11.672;2023-12-29T08:48:10;8.00;99.90
9482;DHT22;4779;48.062;11.672;2023-12-29T08:50:41;8.00;99.90
9482;DHT22;4779;48.062;11.672;2023-12-29T08:53:08;8.00;99.90
9482;DHT22;4779;48.062;11.672;2023-12-29T08:55:35;8.10;99.90
9482;DHT22;4779;48.062;11.672;2023-12-29T08:58:03;8.20;99.90
9482;DHT22;4779;48.062;11.672;2023-12-29T09:00:32;8.20;99.90
9482;DHT22;4779;48.062;11.672;2023-12-29T09:02:59;8.20;99.90
9482;DHT22;4779;48.062;11.672;2023-12-29T09:05:27;8.10;99.90
9482;DHT22;4779;48.062;11.672;2023-12-29T09:07:54;8.10;99.90
9482;DHT22;4779;48.062;11.672;2023-12-29T09:10:21;8.20;99.90
9482;DHT22;4779;48.062;11.672;2023-12-29T09:12:48;8.20;99.90
9482;DHT22;4779;48.062;11.672;2023-12-29T09:15:15;8.20;99.90
9482;DHT22;4779;48.062;11.672;2023-12-29T09:17:44;8.30;99.90
9482;DHT22;4779;48.062;11.672;2023-12-29T09:20:11;8.30;99.90
9482;DHT22;4779;48.062;11.672;2023-12-29T09:22:40;8.30;99.90
9482;DHT22;4779;48.062;11.672;2023-12-29T09:25:07;8.30;99.90
9482;DHT22;4779;48.062;11.672;2023-12-29T09:27:34;8.30;99.90
9482;DHT22;4779;48.062;11.672;2023-12-29T09:30:01;8.20;99.90
9482;DHT22;4779;48.062;11.672;2023-12-29T09:32:29;8.30;99.90
9482;DHT22;4779;48.062;11.672;2023-12-29T09:34:58;8.50;99.90
9482;DHT22;4779;48.062;11.672;2023-12-29T09:37:25;9.00;99.90
9482;DHT22;4779;48.062;11.672;2023-12-29T09:39:52;9.70;99.90
9482;DHT22;4779;48.062;11.672;2023-12-29T09:42:20;9.90;99.90
9482;DHT22;4779;48.062;11.672;2023-12-29T09:44:52;10.30;99.90
9482;DHT22;4779;48.062;11.672;2023-12-29T09:47:21;10.40;99.90
9482;DHT22;4779;48.062;11.672;2023-12-29T09:49:49;10.40;99.90
9482;DHT22;4779;48.062;11.672;2023-12-29T09:52:21;10.40;99.90
9482;DHT22;4779;48.062;11.672;2023-12-29T09:54:49;10.30;99.90
9482;DHT22;4779;48.062;11.672;2023-12-29T09:57:17;10.00;99.90
9482;DHT22;4779;48.062;11.672;2023-12-29T09:59:45;9.90;99.90
9482;DHT22;4779;48.062;11.672;2023-12-29T10:02:15;9.70;99.90
9482;DHT22;4779;48.062;11.672;2023-12-29T10:04:42;9.60;99.90
9482;DHT22;4779;48.062;11.672;2023-12-29T10:07:15;9.50;99.90
9482;DHT22;4779;48.062;11.672;2023-12-29T10:09:48;9.60;99.90
9482;DHT22;4779;48.062;11.672;2023-12-29T10:12:17;9.50;99.90
9482;DHT22;4779;48.062;11.672;2023-12-29T10:14:53;9.50;99.90
9482;DHT22;4779;48.062;11.672;2023-12-29T10:17:30;9.40;99.90
9482;DHT22;4779;48.062;11.672;2023-12-29T10:20:08;9.50;99.90
9482;DHT22;4779;48.062;11.672;2023-12-29T10:22:44;9.30;99.90
9482;DHT22;4779;48.062;11.672;2023-12-29T10:25:17;9.40;99.90
9482;DHT22;4779;48.062;11.672;2023-12-29T10:27:51;9.60;99.90
9482;DHT22;4779;48.062;11.672;2023-12-29T10:30:19;9.80;99.90
9482;DHT22;4779;48.062;11.672;2023-12-29T10:32:49;10.10;99.90
9482;DHT22;4779;48.062;11.672;2023-12-29T10:35:17;10.40;99.90
9482;DHT22;4779;48.062;11.672;2023-12-29T10:37:45;10.60;99.90
9482;DHT22;4779;48.062;11.672;2023-12-29T10:40:18;10.70;99.90
9482;DHT22;4779;48.062;11.672;2023-12-29T10:42:52;10.70;99.90
9482;DHT22;4779;48.062;11.672;2023-12-29T10:45:20;10.80;99.90
9482;DHT22;4779;48.062;11.672;2023-12-29T10:47:47;10.70;99.90
9482;DHT22;4779;48.062;11.672;2023-12-29T10:50:14;10.70;99.90
9482;DHT22;4779;48.062;11.672;2023-12-29T10:52:41;10.70;99.90
9482;DHT22;4779;48.062;11.672;2023-12-29T10:55:10;10.80;99.90
9482;DHT22;4779;48.062;11.672;2023-12-29T10:57:39;10.70;99.90
9482;DHT22;4779;48.062;11.672;2023-12-29T11:00:07;10.70;99.90
9482;DHT22;4779;48.062;11.672;2023-12-29T11:02:34;10.70;99.90
9482;DHT22;4779;48.062;11.672;2023-12-29T11:05:05;10.80;99.90
9482;DHT22;4779;48.062;11.672;2023-12-29T11:07:37;11.00;99.90
9482;DHT22;4779;48.062;11.672;2023-12-29T11:10:05;11.20;99.90
9482;DHT22;4779;48.062;11.672;2023-12-29T11:12:38;11.30;99.90
9482;DHT22;4779;48.062;11.672;2023-12-29T11:15:06;11.30;99.90
9482;DHT22;4779;48.062;11.672;2023-12-29T11:17:35;11.50;99.90
9482;DHT22;4779;48.062;11.672;2023-12-29T11:20:03;11.80;99.90
9482;DHT22;4779;48.062;11.672;2023-12-29T11:22:31;12.20;99.90
9482;DHT22;4779;48.062;11.672;2023-12-29T11:24:59;12.30;99.90
9482;DHT22;4779;48.062;11.672;2023-12-29T11:27:28;12.60;99.90
9482;DHT22;4779;48.062;11.672;2023-12-29T11:29:58;12.50;99.90
9482;DHT22;4779;48.062;11.672;2023-12-29T11:32:32;12.20;99.90
9482;DHT22;4779;48.062;11.672;2023-12-29T11:35:10;12.10;99.90
9482;DHT22;4779;48.062;11.672;2023-12-29T11:37:52;11.90;99.90
9482;DHT22;4779;48.062;11.672;2023-12-29T11:40:29;11.90;99.90
9482;DHT22;4779;48.062;11.672;2023-12-29T11:42:59;11.80;99.90
9482;DHT22;4779;48.062;11.672;2023-12-29T11:45:30;11.80;99.90
9482;DHT22;4779;48.062;11.672;2023-12-29T11:47:59;11.90;99.90
9482;DHT22;4779;48.062;11.672;2023-12-29T11:50:29;11.90;99.90
9482;DHT22;4779;48.062;11.672;2023-12-29T11:52:58;11.90;99.90
9482;DHT22;4779;48.062;11.672;2023-12-29T11:55:29;11.80;99.90
9482;DHT22;4779;48.062;11.672;2023-12-29T11:57:56;11.80;99.90
9482;DHT22;4779;48.062;11.672;2023-12-29T12:00:45;11.80;99.90
9482;DHT22;4779;48.062;11.672;2023-12-29T12:03:16;11.80;99.90
9482;DHT22;4779;48.062;11.672;2023-12-29T12:05:45;11.90;99.90
9482;DHT22;4779;48.062;11.672;2023-12-29T12:08:27;11.80;99.90
9482;DHT22;4779;48.062;11.672;2023-12-29T12:10:55;11.80;99.90
9482;DHT22;4779;48.062;11.672;2023-12-29T12:13:44;11.70;99.90
9482;DHT22;4779;48.062;11.672;2023-12-29T12:19:13;11.60;99.90
9482;DHT22;4779;48.062;11.672;2023-12-29T12:21:40;11.50;99.90
9482;DHT22;4779;48.062;11.672;2023-12-29T12:24:08;11.50;99.90
9482;DHT22;4779;48.062;11.672;2023-12-29T12:26:35;11.50;99.90
9482;DHT22;4779;48.062;11.672;2023-12-29T12:29:02;11.40;99.90
9482;DHT22;4779;48.062;11.672;2023-12-29T12:31:29;11.30;99.90
9482;DHT22;4779;48.062;11.672;2023-12-29T12:33:56;11.30;99.90
9482;DHT22;4779;48.062;11.672;2023-12-29T12:36:25;11.20;99.90
9482;DHT22;4779;48.062;11.672;2023-12-29T12:38:53;11.20;99.90
9482;DHT22;4779;48.062;11.672;2023-12-29T12:41:20;11.20;99.90
9482;DHT22;4779;48.062;11.672;2023-12-29T12:43:56;11.20;99.90
9482;DHT22;4779;48.062;11.672;2023-12-29T12:46:24;11.20;99.90
9482;DHT22;4779;48.062;11.672;2023-12-29T12:48:51;11.10;99.90
9482;DHT22;4779;48.062;11.672;2023-12-29T12:51:19;11.10;99.90
9482;DHT22;4779;48.062;11.672;2023-12-29T12:53:48;11.00;99.90
9482;DHT22;4779;48.062;11.672;2023-12-29T12:56:17;11.00;99.90
9482;DHT22;4779;48.062;11.672;2023-12-29T12:58:45;11.00;99.90
9482;DHT22;4779;48.062;11.672;2023-12-29T13:01:12;10.90;99.90
9482;DHT22;4779;48.062;11.672;2023-12-29T13:03:39;10.90;99.90
9482;DHT22;4779;48.062;11.672;2023-12-29T13:06:07;10.90;99.90
9482;DHT22;4779;48.062;11.672;2023-12-29T13:08:34;10.80;99.90
9482;DHT22;4779;48.062;11.672;2023-12-29T13:11:03;10.90;99.90
9482;DHT22;4779;48.062;11.672;2023-12-29T13:13:38;10.90;99.90
9482;DHT22;4779;48.062;11.672;2023-12-29T13:16:05;10.90;99.90
9482;DHT22;4779;48.062;11.672;2023-12-29T13:18:32;10.90;99.90
9482;DHT22;4779;48.062;11.672;2023-12-29T13:21:00;10.90;99.90
9482;DHT22;4779;48.062;11.672;2023-12-29T13:23:28;10.80;99.90
9482;DHT22;4779;48.062;11.672;2023-12-29T13:25:57;10.80;99.90
9482;DHT22;4779;48.062;11.672;2023-12-29T13:28:26;10.80;99.90
9482;DHT22;4779;48.062;11.672;2023-12-29T13:30:54;10.80;99.90
9482;DHT22;4779;48.062;11.672;2023-12-29T13:33:27;10.70;99.90
9482;DHT22;4779;48.062;11.672;2023-12-29T13:36:05;10.60;99.90
9482;DHT22;4779;48.062;11.672;2023-12-29T13:38:37;10.60;99.90
9482;DHT22;4779;48.062;11.672;2023-12-29T13:41:07;10.60;99.90
9482;DHT22;4779;48.062;11.672;2023-12-29T13:43:38;10.50;99.90
9482;DHT22;4779;48.062;11.672;2023-12-29T13:46:08;10.50;99.90
9482;DHT22;4779;48.062;11.672;2023-12-29T13:48:36;10.50;99.90
9482;DHT22;4779;48.062;11.672;2023-12-29T13:51:03;10.40;99.90
9482;DHT22;4779;48.062;11.672;2023-12-29T13:53:30;10.40;99.90
9482;DHT22;4779;48.062;11.672;2023-12-29T13:56:06;10.40;99.90
9482;DHT22;4779;48.062;11.672;2023-12-29T13:58:33;10.40;99.90
9482;DHT22;4779;48.062;11.672;2023-12-29T14:01:04;10.40;99.90
9482;DHT22;4779;48.062;11.672;2023-12-29T14:03:40;10.30;99.90
9482;DHT22;4779;48.062;11.672;2023-12-29T14:06:12;10.20;99.90
9482;DHT22;4779;48.062;11.672;2023-12-29T14:08:46;10.30;99.90
9482;DHT22;4779;48.062;11.672;2023-12-29T14:11:13;10.20;99.90
9482;DHT22;4779;48.062;11.672;2023-12-29T14:13:44;10.20;99.90
9482;DHT22;4779;48.062;11.672;2023-12-29T14:16:12;10.20;99.90
9482;DHT22;4779;48.062;11.672;2023-12-29T14:18:52;10.20;99.90
9482;DHT22;4779;48.062;11.672;2023-12-29T14:21:23;10.10;99.90
9482;DHT22;4779;48.062;11.672;2023-12-29T14:24:07;10.10;99.90
9482;DHT22;4779;48.062;11.672;2023-12-29T14:26:35;10.10;99.90
9482;DHT22;4779;48.062;11.672;2023-12-29T14:29:06;10.10;99.90
9482;DHT22;4779;48.062;11.672;2023-12-29T14:31:37;10.10;99.90
9482;DHT22;4779;48.062;11.672;2023-12-29T14:34:04;10.10;99.90
9482;DHT22;4779;48.062;11.672;2023-12-29T14:36:32;10.00;99.90
9482;DHT22;4779;48.062;11.672;2023-12-29T14:38:59;9.90;99.90
9482;DHT22;4779;48.062;11.672;2023-12-29T14:41:26;9.90;99.90
9482;DHT22;4779;48.062;11.672;2023-12-29T14:43:54;9.90;99.90
9482;DHT22;4779;48.062;11.672;2023-12-29T14:46:21;9.80;99.90
9482;DHT22;4779;48.062;11.672;2023-12-29T14:48:50;9.80;99.90
9482;DHT22;4779;48.062;11.672;2023-12-29T14:51:18;9.80;99.90
9482;DHT22;4779;48.062;11.672;2023-12-29T14:53:47;9.70;99.90
9482;DHT22;4779;48.062;11.672;2023-12-29T14:56:15;9.70;99.90
9482;DHT22;4779;48.062;11.672;2023-12-29T14:58:42;9.60;99.90
9482;DHT22;4779;48.062;11.672;2023-12-29T15:01:10;9.60;99.90
9482;DHT22;4779;48.062;11.672;2023-12-29T15:03:40;9.60;99.90
9482;DHT22;4779;48.062;11.672;2023-12-29T15:06:08;9.60;99.90
9482;DHT22;4779;48.062;11.672;2023-12-29T15:08:35;9.50;99.90
9482;DHT22;4779;48.062;11.672;2023-12-29T15:11:03;9.60;99.90
9482;DHT22;4779;48.062;11.672;2023-12-29T15:13:31;9.60;99.90
9482;DHT22;4779;48.062;11.672;2023-12-29T15:15:59;9.50;99.90
9482;DHT22;4779;48.062;11.672;2023-12-29T15:18:26;9.40;99.90
9482;DHT22;4779;48.062;11.672;2023-12-29T15:20:53;9.40;99.90
9482;DHT22;4779;48.062;11.672;2023-12-29T15:23:22;9.30;99.90
9482;DHT22;4779;48.062;11.672;2023-12-29T15:25:49;9.30;99.90
9482;DHT22;4779;48.062;11.672;2023-12-29T15:28:16;9.20;99.90
9482;DHT22;4779;48.062;11.672;2023-12-29T15:30:44;9.10;99.90
9482;DHT22;4779;48.062;11.672;2023-12-29T15:33:11;9.10;99.90
9482;DHT22;4779;48.062;11.672;2023-12-29T15:35:38;9.00;99.90
9482;DHT22;4779;48.062;11.672;2023-12-29T15:38:06;9.00;99.90
9482;DHT22;4779;48.062;11.672;2023-12-29T15:40:35;8.90;99.90
9482;DHT22;4779;48.062;11.672;2023-12-29T15:43:02;8.90;99.90
9482;DHT22;4779;48.062;11.672;2023-12-29T15:45:30;8.80;99.90
9482;DHT22;4779;48.062;11.672;2023-12-29T15:47:57;8.70;99.90
9482;DHT22;4779;48.062;11.672;2023-12-29T15:50:24;8.70;99.90
9482;DHT22;4779;48.062;11.672;2023-12-29T15:52:51;8.60;99.90
9482;DHT22;4779;48.062;11.672;2023-12-29T15:55:19;8.60;99.90
9482;DHT22;4779;48.062;11.672;2023-12-29T15:57:47;8.60;99.90
9482;DHT22;4779;48.062;11.672;2023-12-29T16:00:15;8.60;99.90
9482;DHT22;4779;48.062;11.672;2023-12-29T16:02:42;8.50;99.90
9482;DHT22;4779;48.062;11.672;2023-12-29T16:05:10;8.50;99.90
9482;DHT22;4779;48.062;11.672;2023-12-29T16:07:37;8.50;99.90